Time;durP1;ratioP1;P1;durP2;ratioP2;P2;SDS_P1;SDS_P2;PMS_P1;PMS_P2;Temp;Humidity;BMP_temperature;BMP_pressure;BME280_temperature;BME280_humidity;BME280_pressure;Samples;Min_cycle;Max_cycle;Signal;HPM_P1;HPM_P2
2021/07/22 00:02:05;;;;;;;13.85;9.57;;;21.70;99.90;;;;;;5051945;28;20697;-80
2021/07/22 00:04:31;;;;;;;31.60;14.00;;;21.70;99.90;;;;;;5051860;28;20219;-80
2021/07/22 00:06:57;;;;;;;17.73;13.10;;;21.70;99.90;;;;;;5052119;28;20519;-83
2021/07/22 00:09:22;;;;;;;20.50;10.65;;;21.70;99.90;;;;;;5051854;28;20167;-80
2021/07/22 00:11:48;;;;;;;9.32;8.43;;;21.60;99.90;;;;;;5051771;28;20175;-80
2021/07/22 00:14:14;;;;;;;14.70;9.10;;;21.40;99.90;;;;;;5054858;28;20758;-80
2021/07/22 00:16:40;;;;;;;12.52;8.50;;;21.30;99.90;;;;;;5055651;28;20219;-80
2021/07/22 00:19:05;;;;;;;11.48;9.63;;;21.30;99.90;;;;;;5055742;28;20507;-80
2021/07/22 00:21:31;;;;;;;11.02;9.30;;;21.30;99.90;;;;;;5055873;28;20174;-80
2021/07/22 00:23:57;;;;;;;12.48;9.25;;;21.40;99.90;;;;;;5055450;28;20615;-80
2021/07/22 00:26:23;;;;;;;11.93;10.13;;;21.30;99.90;;;;;;5055416;28;20228;-80
2021/07/22 00:28:48;;;;;;;16.95;9.88;;;21.20;99.90;;;;;;5055386;28;20533;-83
2021/07/22 00:31:14;;;;;;;15.35;9.45;;;21.00;99.90;;;;;;5055382;28;20183;-80
2021/07/22 00:33:40;;;;;;;12.68;10.32;;;21.00;99.90;;;;;;5055478;28;20177;-81
2021/07/22 00:36:07;;;;;;;13.70;10.20;;;21.10;99.90;;;;;;5055492;28;20190;-80
2021/07/22 00:38:32;;;;;;;12.48;10.82;;;21.00;99.90;;;;;;5037664;28;20203;-80
2021/07/22 00:40:59;;;;;;;14.27;10.98;;;21.00;99.90;;;;;;5055272;28;20516;-80
2021/07/22 00:43:25;;;;;;;20.10;11.32;;;21.00;99.90;;;;;;5055309;28;20266;-80
2021/07/22 00:45:51;;;;;;;20.63;13.07;;;21.00;99.90;;;;;;5055267;28;20229;-80
2021/07/22 00:48:16;;;;;;;25.20;14.32;;;21.00;99.90;;;;;;5037186;28;20190;-80
2021/07/22 00:50:42;;;;;;;16.83;13.65;;;21.00;99.90;;;;;;5055183;28;20163;-80
2021/07/22 00:53:08;;;;;;;27.38;13.82;;;20.90;99.90;;;;;;5054789;28;20163;-80
2021/07/22 00:55:33;;;;;;;15.15;11.98;;;20.90;99.90;;;;;;5036643;28;20240;-80
2021/07/22 00:57:59;;;;;;;15.65;12.15;;;20.80;99.90;;;;;;5054893;28;20182;-80
2021/07/22 01:00:25;;;;;;;23.63;12.65;;;20.80;99.90;;;;;;5054861;28;20201;-80
2021/07/22 01:02:50;;;;;;;18.40;13.38;;;20.80;99.90;;;;;;5054927;28;20175;-80
2021/07/22 01:05:16;;;;;;;20.13;13.63;;;21.00;99.90;;;;;;5054909;28;20187;-83
2021/07/22 01:07:41;;;;;;;21.60;13.02;;;21.00;99.90;;;;;;5054901;28;20620;-80
2021/07/22 01:10:09;;;;;;;20.27;12.73;;;20.90;99.90;;;;;;5054613;28;20649;-80
2021/07/22 01:12:34;;;;;;;13.73;11.60;;;20.80;99.90;;;;;;5036822;28;20186;-80
2021/07/22 01:15:00;;;;;;;14.80;12.07;;;20.80;99.90;;;;;;5054647;28;20191;-80
2021/07/22 01:17:53;;;;;;;19.95;13.48;;;21.00;99.90;;;;;;5054482;28;20563;-80
2021/07/22 01:20:23;;;;;;;16.88;11.95;;;21.00;99.90;;;;;;5053854;28;20188;-80
2021/07/22 01:22:51;;;;;;;16.25;12.63;;;20.80;99.90;;;;;;5036524;28;20175;-80
2021/07/22 01:25:18;;;;;;;20.75;12.88;;;20.80;99.90;;;;;;5053344;28;20679;-80
2021/07/22 01:27:44;;;;;;;18.85;12.90;;;20.70;99.90;;;;;;5054446;28;20179;-81
2021/07/22 01:30:10;;;;;;;22.10;13.57;;;20.70;99.90;;;;;;5054568;28;20179;-81
2021/07/22 01:32:36;;;;;;;22.73;13.80;;;20.70;99.90;;;;;;5054103;28;20619;-80
2021/07/22 01:35:03;;;;;;;17.30;13.27;;;20.60;99.90;;;;;;5054313;28;20183;-80
2021/07/22 01:37:28;;;;;;;19.30;13.52;;;20.50;99.90;;;;;;5036556;28;20233;-80
2021/07/22 01:39:54;;;;;;;22.67;13.07;;;20.60;99.90;;;;;;5054556;28;21020;-79
2021/07/22 01:42:20;;;;;;;23.10;15.43;;;20.50;99.90;;;;;;5053911;28;20182;-80
2021/07/22 01:44:46;;;;;;;21.02;14.65;;;20.50;99.90;;;;;;5054074;28;20225;-82
2021/07/22 01:47:11;;;;;;;24.92;15.23;;;20.60;99.90;;;;;;5053926;28;20163;-80
2021/07/22 01:49:37;;;;;;;29.10;15.32;;;20.50;99.90;;;;;;5053923;28;20171;-80
2021/07/22 01:52:06;;;;;;;19.70;14.60;;;20.50;99.90;;;;;;5054113;28;20167;-80
2021/07/22 01:54:32;;;;;;;21.33;14.52;;;20.20;99.90;;;;;;5035925;28;20591;-79
2021/07/22 01:56:59;;;;;;;22.27;14.57;;;20.10;99.90;;;;;;5053671;28;20206;-80
2021/07/22 01:59:26;;;;;;;21.33;15.50;;;20.10;99.90;;;;;;5053799;28;20195;-80
2021/07/22 02:01:51;;;;;;;26.02;16.77;;;20.20;99.90;;;;;;5053569;28;20198;-79
2021/07/22 02:04:17;;;;;;;22.90;16.05;;;20.30;99.90;;;;;;5053980;28;20196;-81
2021/07/22 02:06:43;;;;;;;25.08;15.77;;;20.20;99.90;;;;;;5053654;28;20616;-80
2021/07/22 02:09:08;;;;;;;26.23;15.80;;;20.20;99.90;;;;;;5053715;28;20168;-81
2021/07/22 02:11:34;;;;;;;22.75;16.13;;;20.20;99.90;;;;;;5053630;28;20177;-80
2021/07/22 02:14:00;;;;;;;28.92;17.77;;;20.20;99.90;;;;;;5035446;28;20628;-80
2021/07/22 02:16:25;;;;;;;32.65;17.65;;;20.10;99.90;;;;;;5035354;28;20567;-80
2021/07/22 02:18:51;;;;;;;30.85;17.77;;;19.90;99.90;;;;;;5035634;28;20167;-80
2021/07/22 02:21:17;;;;;;;28.73;17.42;;;19.90;99.90;;;;;;5053391;28;20218;-80
2021/07/22 02:23:43;;;;;;;25.50;16.85;;;19.90;99.90;;;;;;5053390;28;20251;-80
2021/07/22 02:26:09;;;;;;;30.05;17.88;;;19.80;99.90;;;;;;5052927;28;20183;-81
2021/07/22 02:28:38;;;;;;;26.95;16.65;;;19.70;99.90;;;;;;5053177;28;20682;-80
2021/07/22 02:31:04;;;;;;;38.05;17.20;;;19.70;99.90;;;;;;5053207;28;20178;-80
2021/07/22 02:33:29;;;;;;;27.83;16.60;;;19.70;99.90;;;;;;5053410;28;20570;-80
2021/07/22 02:35:58;;;;;;;32.53;18.17;;;19.60;99.90;;;;;;5052802;28;20207;-80
2021/07/22 02:38:24;;;;;;;25.08;16.38;;;19.70;99.90;;;;;;5053303;28;20179;-81
2021/07/22 02:40:50;;;;;;;30.45;17.67;;;19.70;99.90;;;;;;5053162;28;20302;-79
2021/07/22 02:43:15;;;;;;;27.48;17.17;;;19.70;99.90;;;;;;5052963;28;20171;-80
2021/07/22 02:45:41;;;;;;;23.17;16.00;;;19.80;99.90;;;;;;5034786;28;20186;-80
2021/07/22 02:48:08;;;;;;;24.75;16.40;;;19.80;99.90;;;;;;5052868;28;20182;-80
2021/07/22 02:50:34;;;;;;;28.00;17.00;;;19.70;99.90;;;;;;5052707;28;20163;-80
2021/07/22 02:53:03;;;;;;;25.58;17.23;;;19.80;99.90;;;;;;5053060;28;20594;-80
2021/07/22 02:55:29;;;;;;;26.13;16.48;;;19.70;99.90;;;;;;5034728;28;20191;-80
2021/07/22 02:57:54;;;;;;;26.77;16.80;;;19.50;99.90;;;;;;5052789;28;20647;-80
2021/07/22 03:00:20;;;;;;;31.92;17.90;;;19.50;99.90;;;;;;5053119;28;20171;-81
2021/07/22 03:02:46;;;;;;;33.97;18.27;;;19.50;99.90;;;;;;5052643;28;20532;-80
2021/07/22 03:05:11;;;;;;;33.05;17.48;;;19.40;99.90;;;;;;5034631;28;20183;-80
2021/07/22 03:07:37;;;;;;;31.13;18.35;;;19.50;99.90;;;;;;5052748;28;20173;-80
2021/07/22 03:10:03;;;;;;;31.45;18.52;;;19.50;99.90;;;;;;5052648;28;20167;-80
2021/07/22 03:12:29;;;;;;;42.38;19.83;;;19.30;99.90;;;;;;5052642;28;20187;-80
2021/07/22 03:14:55;;;;;;;34.72;19.90;;;19.20;99.90;;;;;;5052446;28;20195;-78
2021/07/22 03:17:21;;;;;;;38.05;19.60;;;19.30;99.90;;;;;;5052295;28;20211;-79
2021/07/22 03:19:47;;;;;;;33.88;19.65;;;19.30;99.90;;;;;;5052290;28;20163;-80
2021/07/22 03:22:14;;;;;;;38.15;21.27;;;19.40;99.90;;;;;;5034665;28;20542;-78
2021/07/22 03:24:40;;;;;;;40.08;21.83;;;19.30;99.90;;;;;;5052499;28;20265;-78
2021/07/22 03:27:05;;;;;;;43.05;20.50;;;19.20;99.90;;;;;;5034548;28;20612;-78
2021/07/22 03:29:32;;;;;;;39.85;22.60;;;19.30;99.90;;;;;;5052382;28;20167;-79
2021/07/22 03:31:59;;;;;;;33.90;20.05;;;19.30;99.90;;;;;;5052295;28;20175;-78
2021/07/22 03:34:25;;;;;;;38.50;21.77;;;19.10;99.90;;;;;;5052479;28;20187;-78
2021/07/22 03:36:50;;;;;;;37.17;21.42;;;19.10;99.90;;;;;;5052109;28;20264;-78
2021/07/22 03:39:16;;;;;;;39.90;22.15;;;19.10;99.90;;;;;;5052226;28;20628;-79
2021/07/22 03:41:47;;;;;;;35.47;20.77;;;19.10;99.90;;;;;;5051964;28;20229;-78
2021/07/22 03:44:14;;;;;;;40.75;21.02;;;19.10;99.90;;;;;;5034204;28;20650;-78
2021/07/22 03:46:40;;;;;;;37.65;20.55;;;19.20;99.90;;;;;;5052038;28;20170;-78
2021/07/22 03:49:05;;;;;;;39.20;19.90;;;19.10;99.90;;;;;;5054955;28;20175;-78
2021/07/22 03:51:31;;;;;;;33.92;19.80;;;19.00;99.90;;;;;;5056255;28;20163;-78
2021/07/22 03:53:56;;;;;;;37.80;19.90;;;19.10;99.90;;;;;;5056101;28;20212;-78
2021/07/22 03:56:23;;;;;;;34.13;20.02;;;19.20;99.90;;;;;;5038161;28;20617;-78
2021/07/22 03:58:48;;;;;;;37.92;18.35;;;19.30;99.90;;;;;;5038539;28;20171;-78
2021/07/22 04:01:14;;;;;;;35.28;18.65;;;19.30;99.90;;;;;;5055959;28;20167;-78
2021/07/22 04:03:39;;;;;;;37.03;18.35;;;19.20;99.90;;;;;;5056287;28;20199;-80
2021/07/22 04:06:05;;;;;;;35.05;19.20;;;19.20;99.90;;;;;;5055899;28;20191;-78
2021/07/22 04:08:30;;;;;;;39.75;18.77;;;19.30;99.90;;;;;;5055786;28;20678;-78
2021/07/22 04:10:56;;;;;;;40.33;20.05;;;19.20;99.90;;;;;;5056304;28;20163;-78
2021/07/22 04:13:22;;;;;;;34.90;19.10;;;19.30;99.90;;;;;;5055943;28;20183;-78
2021/07/22 04:15:47;;;;;;;32.13;19.23;;;19.30;99.90;;;;;;5037804;28;20203;-78
2021/07/22 04:18:13;;;;;;;34.08;20.15;;;19.40;99.90;;;;;;5055889;28;20240;-78
2021/07/22 04:20:39;;;;;;;29.02;18.55;;;19.60;99.90;;;;;;5037823;28;20167;-78
2021/07/22 04:23:04;;;;;;;35.88;20.20;;;19.70;99.90;;;;;;5056115;28;20186;-78
2021/07/22 04:25:30;;;;;;;41.17;21.25;;;19.50;99.90;;;;;;5055517;28;20183;-79
2021/07/22 04:27:56;;;;;;;40.63;21.45;;;19.40;99.90;;;;;;5037556;28;20183;-82
2021/07/22 04:30:21;;;;;;;38.95;22.30;;;19.30;99.90;;;;;;5055595;28;20628;-80
2021/07/22 04:32:47;;;;;;;39.40;23.27;;;19.50;99.90;;;;;;5055335;28;20268;-80
2021/07/22 04:35:14;;;;;;;37.00;20.77;;;19.70;99.90;;;;;;5055404;28;20190;-80
2021/07/22 04:37:39;;;;;;;46.67;22.63;;;19.70;99.90;;;;;;5055571;28;20218;-81
2021/07/22 04:40:08;;;;;;;38.50;22.95;;;19.50;99.90;;;;;;5037417;28;20160;-80
2021/07/22 04:42:35;;;;;;;44.63;21.50;;;19.50;99.90;;;;;;5055270;28;20258;-79
2021/07/22 04:45:02;;;;;;;46.40;22.35;;;19.60;99.90;;;;;;5055139;28;20187;-80
2021/07/22 04:47:27;;;;;;;37.40;21.27;;;19.80;99.90;;;;;;5055093;28;20258;-79
2021/07/22 04:49:53;;;;;;;35.05;20.38;;;19.80;99.90;;;;;;5055528;28;20254;-80
2021/07/22 04:52:19;;;;;;;36.25;21.00;;;19.90;99.90;;;;;;5055036;28;20202;-80
2021/07/22 04:54:44;;;;;;;38.90;21.08;;;20.00;99.90;;;;;;5054907;28;20258;-80
2021/07/22 04:57:10;;;;;;;32.90;19.33;;;20.00;99.90;;;;;;5054852;28;20623;-79
2021/07/22 04:59:35;;;;;;;39.33;21.63;;;20.10;99.90;;;;;;5054489;28;20177;-80
2021/07/22 05:02:01;;;;;;;39.42;21.67;;;20.00;99.90;;;;;;5054950;28;20245;-79
2021/07/22 05:04:27;;;;;;;38.88;20.80;;;20.20;99.90;;;;;;5054704;28;20176;-80
2021/07/22 05:06:52;;;;;;;41.10;20.25;;;20.40;99.90;;;;;;5054876;28;20561;-80
2021/07/22 05:09:18;;;;;;;37.63;21.08;;;20.50;99.90;;;;;;5054747;28;20159;-80
2021/07/22 05:11:44;;;;;;;35.05;18.85;;;20.60;99.90;;;;;;5055053;28;20220;-80
2021/07/22 05:14:09;;;;;;;42.03;20.13;;;20.50;99.90;;;;;;5054539;28;20294;-80
2021/07/22 05:16:35;;;;;;;41.30;21.08;;;20.50;99.90;;;;;;5054949;28;20348;-80
2021/07/22 05:19:01;;;;;;;44.45;20.88;;;20.70;99.90;;;;;;5054453;28;20179;-79
2021/07/22 05:21:26;;;;;;;38.42;20.50;;;20.80;99.90;;;;;;5054617;28;20175;-79
2021/07/22 05:23:52;;;;;;;38.67;21.67;;;20.90;99.90;;;;;;5036500;28;20167;-80
2021/07/22 05:26:18;;;;;;;37.25;21.52;;;21.10;99.90;;;;;;5054437;28;20191;-79
2021/07/22 05:28:43;;;;;;;45.35;21.90;;;21.00;99.90;;;;;;5036866;28;20206;-80
2021/07/22 05:31:12;;;;;;;37.08;20.58;;;21.10;99.90;;;;;;5054054;28;20334;-79
2021/07/22 05:33:40;;;;;;;37.97;22.02;;;21.30;99.90;;;;;;5036448;28;20163;-79
2021/07/22 05:36:07;;;;;;;45.90;24.17;;;21.40;99.90;;;;;;5054144;28;20687;-79
2021/07/22 05:38:34;;;;;;;49.88;23.88;;;21.50;99.90;;;;;;5054259;28;20262;-79
2021/07/22 05:41:04;;;;;;;52.38;26.50;;;21.50;99.90;;;;;;5054174;28;20170;-79
2021/07/22 05:43:31;;;;;;;48.85;25.05;;;21.70;99.90;;;;;;5053806;28;20266;-79
2021/07/22 05:45:57;;;;;;;55.65;27.52;;;21.50;99.90;;;;;;5035955;28;20195;-79
2021/07/22 05:48:22;;;;;;;48.65;27.48;;;21.50;99.90;;;;;;5036031;28;20535;-79
2021/07/22 05:50:51;;;;;;;52.40;28.15;;;21.40;99.90;;;;;;5053904;28;20174;-79
2021/07/22 05:53:17;;;;;;;55.03;28.42;;;21.50;99.90;;;;;;5036032;28;20221;-79
2021/07/22 05:55:43;;;;;;;55.25;27.50;;;21.50;99.90;;;;;;5053735;28;20201;-82
2021/07/22 05:58:09;;;;;;;53.03;26.98;;;21.50;99.90;;;;;;5053843;28;20176;-79
2021/07/22 06:00:35;;;;;;;59.22;28.70;;;21.70;99.90;;;;;;5053624;28;20166;-79
2021/07/22 06:03:05;;;;;;;48.17;24.60;;;21.80;99.90;;;;;;5053780;28;20176;-78
2021/07/22 06:05:31;;;;;;;41.25;24.00;;;21.70;99.90;;;;;;5053616;28;20187;-79
2021/07/22 06:07:57;;;;;;;46.67;24.58;;;21.80;99.90;;;;;;5054055;28;20186;-79
2021/07/22 06:10:23;;;;;;;50.00;24.88;;;21.80;99.90;;;;;;5053413;28;20539;-79
2021/07/22 06:12:49;;;;;;;45.70;23.90;;;21.80;99.90;;;;;;5053229;28;20238;-79
2021/07/22 06:15:14;;;;;;;45.05;23.67;;;21.90;99.90;;;;;;5053199;28;20647;-79
2021/07/22 06:17:41;;;;;;;45.42;24.15;;;21.80;99.90;;;;;;5052960;28;20320;-78
2021/07/22 06:20:08;;;;;;;50.58;23.33;;;22.00;99.90;;;;;;5035236;28;20630;-79
2021/07/22 06:22:38;;;;;;;50.78;24.63;;;21.70;99.90;;;;;;5053326;28;20217;-79
2021/07/22 06:25:05;;;;;;;53.95;23.38;;;21.70;99.90;;;;;;5052992;28;20543;-79
2021/07/22 06:27:31;;;;;;;44.38;22.73;;;21.30;99.90;;;;;;5052942;28;20542;-78
2021/07/22 06:30:00;;;;;;;49.28;23.48;;;21.50;99.90;;;;;;5053008;28;20254;-79
2021/07/22 06:32:26;;;;;;;42.20;23.17;;;21.60;99.90;;;;;;5034979;28;20159;-79
2021/07/22 06:34:51;;;;;;;50.60;24.40;;;21.80;99.90;;;;;;5052891;28;20201;-79
2021/07/22 06:37:17;;;;;;;51.13;25.20;;;21.90;99.90;;;;;;5052734;28;20250;-79
2021/07/22 06:39:43;;;;;;;50.80;25.20;;;22.30;99.90;;;;;;5052994;28;20190;-79
2021/07/22 06:42:08;;;;;;;44.97;24.45;;;22.30;99.90;;;;;;5052718;28;20245;-79
2021/07/22 06:44:34;;;;;;;46.97;25.20;;;22.30;99.90;;;;;;5052644;28;20190;-79
2021/07/22 06:47:00;;;;;;;48.78;24.13;;;22.20;99.90;;;;;;5052613;28;20194;-79
2021/07/22 06:49:26;;;;;;;46.95;25.23;;;22.10;99.90;;;;;;5052463;28;20638;-79
2021/07/22 06:51:52;;;;;;;51.85;26.83;;;22.20;99.90;;;;;;5052652;28;20175;-80
2021/07/22 06:54:19;;;;;;;46.75;25.17;;;22.00;99.90;;;;;;5052559;28;20626;-79
2021/07/22 06:56:44;;;;;;;50.15;25.33;;;21.80;99.90;;;;;;5052298;28;20251;-79
2021/07/22 06:59:10;;;;;;;44.58;24.40;;;22.10;99.90;;;;;;5052242;28;20164;-79
2021/07/22 07:01:36;;;;;;;45.15;21.90;;;22.40;99.90;;;;;;5052591;28;20520;-79
2021/07/22 07:04:04;;;;;;;45.95;24.25;;;22.60;99.90;;;;;;5052193;28;20629;-79
2021/07/22 07:06:36;;;;;;;49.83;23.40;;;22.40;99.90;;;;;;5034114;28;20622;-79
2021/07/22 07:09:05;;;;;;;54.95;24.98;;;22.30;99.90;;;;;;5052227;28;20245;-79
2021/07/22 07:11:30;;;;;;;43.55;24.15;;;21.70;99.90;;;;;;5052467;28;20175;-79
2021/07/22 07:13:56;;;;;;;47.25;23.85;;;21.90;99.90;;;;;;5052410;28;20171;-79
2021/07/22 07:16:22;;;;;;;43.83;22.27;;;22.20;99.90;;;;;;5034107;28;20274;-79
2021/07/22 07:18:48;;;;;;;48.72;22.65;;;22.30;99.90;;;;;;5052258;28;20163;-79
2021/07/22 07:21:14;;;;;;;45.78;22.08;;;22.60;99.90;;;;;;5051971;28;20175;-79
2021/07/22 07:23:39;;;;;;;39.47;20.40;;;23.40;99.90;;;;;;5052344;28;20242;-79
2021/07/22 07:26:09;;;;;;;47.10;20.85;;;24.20;99.90;;;;;;5052139;28;20262;-79
2021/07/22 07:28:35;;;;;;;35.08;18.98;;;24.90;99.90;;;;;;5034144;28;20661;-79
2021/07/22 07:31:01;;;;;;;31.52;19.05;;;25.80;99.90;;;;;;5051976;28;20171;-80
2021/07/22 07:33:29;;;;;;;34.50;19.17;;;26.50;99.90;;;;;;5052272;28;20518;-80
2021/07/22 07:35:56;;;;;;;37.70;20.15;;;26.40;99.90;;;;;;5052225;28;20268;-80
2021/07/22 07:38:22;;;;;;;33.53;19.52;;;27.20;99.90;;;;;;5052140;28;20213;-80
2021/07/22 07:40:48;;;;;;;33.83;20.15;;;26.90;99.90;;;;;;5033972;28;20175;-80
2021/07/22 07:43:15;;;;;;;37.03;19.98;;;27.30;99.90;;;;;;5034081;28;20583;-79
2021/07/22 07:45:41;;;;;;;40.42;19.67;;;27.70;99.90;;;;;;5033474;28;20278;-80
2021/07/22 07:48:06;;;;;;;34.55;19.15;;;27.40;99.90;;;;;;5052051;28;20246;-80
2021/07/22 07:50:32;;;;;;;35.95;18.30;;;27.20;99.90;;;;;;5052110;28;20249;-80
2021/07/22 07:52:58;;;;;;;26.50;17.52;;;27.00;99.90;;;;;;5051774;28;20202;-80
2021/07/22 07:55:24;;;;;;;30.92;20.40;;;26.60;99.90;;;;;;5033803;28;20191;-79
2021/07/22 07:57:49;;;;;;;39.42;21.10;;;25.90;99.90;;;;;;5051913;28;20328;-80
2021/07/22 08:00:15;;;;;;;25.67;16.90;;;25.70;99.90;;;;;;5052032;28;20555;-80
2021/07/22 08:02:43;;;;;;;36.10;19.23;;;25.70;99.90;;;;;;5051783;28;20246;-80
2021/07/22 08:05:10;;;;;;;37.28;20.38;;;25.20;99.90;;;;;;5051680;28;20193;-80
2021/07/22 08:07:35;;;;;;;41.65;21.42;;;25.10;99.90;;;;;;5051921;28;20171;-79
2021/07/22 08:10:02;;;;;;;31.38;19.45;;;25.00;99.90;;;;;;5051643;28;20167;-79
2021/07/22 08:12:28;;;;;;;32.42;18.58;;;25.30;99.90;;;;;;5033906;28;20176;-80
2021/07/22 08:14:53;;;;;;;29.90;17.10;;;25.20;99.90;;;;;;5051766;28;20187;-79
2021/07/22 08:17:22;;;;;;;27.55;16.00;;;25.10;99.90;;;;;;5051431;28;20568;-79
2021/07/22 08:19:48;;;;;;;22.40;14.60;;;25.20;99.90;;;;;;5051796;28;20539;-81
2021/07/22 08:22:13;;;;;;;28.88;15.45;;;24.70;99.90;;;;;;5033841;28;20631;-79
2021/07/22 08:24:39;;;;;;;29.23;17.00;;;24.50;99.90;;;;;;5051587;28;20179;-79
2021/07/22 08:27:06;;;;;;;34.97;17.38;;;24.60;99.90;;;;;;5051638;28;20710;-79
2021/07/22 08:29:37;;;;;;;31.08;17.42;;;24.70;99.90;;;;;;5033707;28;20171;-80
2021/07/22 08:32:02;;;;;;;31.05;16.52;;;24.70;99.90;;;;;;5051511;28;20244;-80
2021/07/22 08:34:28;;;;;;;25.38;16.35;;;24.80;99.90;;;;;;5052857;28;20766;-80
2021/07/22 08:36:54;;;;;;;18.20;12.95;;;24.90;99.90;;;;;;5055004;28;20235;-80
2021/07/22 08:39:19;;;;;;;26.50;16.45;;;24.90;99.90;;;;;;5055177;28;20218;-80
2021/07/22 08:41:46;;;;;;;23.77;13.70;;;24.70;99.90;;;;;;5054956;28;20163;-80
2021/07/22 08:44:13;;;;;;;22.88;12.10;;;24.50;99.90;;;;;;5055164;28;20159;-82
2021/07/22 08:46:43;;;;;;;18.90;12.38;;;24.60;99.90;;;;;;5054852;28;20206;-80
2021/07/22 08:49:10;;;;;;;26.60;13.70;;;24.80;99.90;;;;;;5054998;28;20197;-80
2021/07/22 08:51:35;;;;;;;23.77;13.23;;;24.90;99.90;;;;;;5055164;28;20168;-81
2021/07/22 08:54:01;;;;;;;23.60;13.10;;;25.00;99.90;;;;;;5055010;28;20178;-80
2021/07/22 08:56:28;;;;;;;23.55;13.98;;;24.50;99.90;;;;;;5054510;28;20678;-80
2021/07/22 08:58:56;;;;;;;18.77;12.15;;;24.50;99.90;;;;;;5054533;28;20328;-80
2021/07/22 09:01:24;;;;;;;21.58;11.82;;;24.70;99.90;;;;;;5054466;28;20163;-80
2021/07/22 09:03:50;;;;;;;19.38;10.77;;;24.90;99.90;;;;;;5036207;28;20260;-80
2021/07/22 09:06:16;;;;;;;13.40;9.38;;;25.10;99.90;;;;;;5054210;28;20472;-80
2021/07/22 09:08:42;;;;;;;18.48;12.30;;;24.90;99.90;;;;;;5054200;28;20646;-80
2021/07/22 09:11:09;;;;;;;19.25;10.77;;;24.90;99.90;;;;;;5053931;28;20175;-80
2021/07/22 09:13:35;;;;;;;18.17;11.90;;;24.80;99.90;;;;;;5054110;28;20513;-79
2021/07/22 09:16:02;;;;;;;14.10;10.52;;;24.90;99.90;;;;;;5054277;28;20225;-80
2021/07/22 09:18:36;;;;;;;20.73;11.45;;;24.90;99.90;;;;;;5054492;28;20533;-80
2021/07/22 09:21:24;;;;;;;16.65;11.18;;;24.60;99.90;;;;;;5055036;28;20175;-79
2021/07/22 09:24:11;;;;;;;17.20;9.40;;;24.60;99.90;;;;;;5054580;28;20666;-78
2021/07/22 09:26:39;;;;;;;18.85;11.88;;;24.70;99.90;;;;;;5054039;28;20233;-79
2021/07/22 09:29:07;;;;;;;23.00;13.50;;;24.70;99.90;;;;;;5054380;28;20246;-79
2021/07/22 09:31:33;;;;;;;22.02;13.23;;;24.80;99.90;;;;;;5054218;28;20250;-78
2021/07/22 09:33:59;;;;;;;21.05;11.48;;;24.70;99.90;;;;;;5054210;28;20216;-80
2021/07/22 09:36:32;;;;;;;14.07;9.88;;;24.30;99.90;;;;;;5054172;28;20777;-79
2021/07/22 09:39:20;;;;;;;19.60;11.55;;;24.50;99.90;;;;;;5054353;28;20189;-80
2021/07/22 09:42:04;;;;;;;17.52;11.27;;;24.70;99.90;;;;;;5054258;28;20163;-79
2021/07/22 09:44:40;;;;;;;16.13;12.40;;;24.70;99.90;;;;;;5053702;28;20183;-79
2021/07/22 09:47:15;;;;;;;21.25;10.50;;;24.90;99.90;;;;;;5052643;28;20163;-79
2021/07/22 09:49:42;;;;;;;14.80;8.82;;;25.20;99.90;;;;;;5054226;28;20664;-78
2021/07/22 09:52:17;;;;;;;15.65;9.00;;;25.60;99.90;;;;;;5036007;28;20170;-78
2021/07/22 09:54:42;;;;;;;17.15;9.43;;;25.50;99.90;;;;;;5053479;28;20292;-79
2021/07/22 09:57:16;;;;;;;15.18;9.50;;;25.40;99.90;;;;;;5035765;28;20675;-79
2021/07/22 09:59:49;;;;;;;20.30;10.75;;;25.70;99.90;;;;;;5054071;28;21025;-79
2021/07/22 10:02:18;;;;;;;11.65;8.68;;;25.60;99.90;;;;;;5053919;28;20258;-79
2021/07/22 10:04:59;;;;;;;14.63;10.13;;;25.80;99.90;;;;;;5053583;28;20693;-79
2021/07/22 10:07:26;;;;;;;16.20;9.52;;;25.70;99.90;;;;;;5035837;28;20175;-79
2021/07/22 10:09:54;;;;;;;11.50;9.65;;;25.80;99.90;;;;;;5035472;28;20197;-79
2021/07/22 10:12:23;;;;;;;16.50;12.10;;;25.90;99.90;;;;;;5053437;28;20503;-79
2021/07/22 10:14:57;;;;;;;20.85;13.35;;;26.00;99.90;;;;;;5053047;28;20191;-79
2021/07/22 10:17:27;;;;;;;16.98;13.25;;;25.60;99.90;;;;;;5053221;28;20202;-80
2021/07/22 10:19:55;;;;;;;24.15;12.38;;;25.70;99.90;;;;;;5052992;28;20631;-79
2021/07/22 10:22:22;;;;;;;18.83;12.98;;;25.80;99.90;;;;;;5053139;28;20250;-79
2021/07/22 10:24:48;;;;;;;19.33;11.75;;;25.60;99.90;;;;;;5053046;28;20181;-79
2021/07/22 10:27:14;;;;;;;22.50;12.48;;;25.40;99.90;;;;;;5052767;28;20499;-79
2021/07/22 10:29:40;;;;;;;17.17;11.55;;;25.50;99.90;;;;;;5053083;28;20576;-79
2021/07/22 10:32:06;;;;;;;13.32;9.63;;;25.40;99.90;;;;;;5053129;28;20225;-79
2021/07/22 10:34:34;;;;;;;15.40;9.45;;;25.40;99.90;;;;;;5052934;28;20183;-79
2021/07/22 10:37:00;;;;;;;14.77;9.75;;;25.60;99.90;;;;;;5052694;28;20206;-79
2021/07/22 10:40:07;;;;;;;14.35;9.25;;;25.80;99.90;;;;;;5052663;28;20213;-79
2021/07/22 10:42:40;;;;;;;10.32;7.53;;;25.70;99.90;;;;;;5052893;28;20566;-79
2021/07/22 10:45:18;;;;;;;13.93;7.93;;;25.60;99.90;;;;;;5052883;28;20190;-79
2021/07/22 10:48:00;;;;;;;13.43;9.38;;;25.80;99.90;;;;;;5052472;28;20171;-79
2021/07/22 10:50:39;;;;;;;12.80;7.47;;;25.90;99.90;;;;;;5052510;28;20201;-79
2021/07/22 10:53:06;;;;;;;7.05;5.85;;;25.80;99.90;;;;;;5052612;28;20170;-79
2021/07/22 10:55:40;;;;;;;12.13;7.40;;;25.70;99.90;;;;;;5034612;28;20194;-79
2021/07/22 10:58:24;;;;;;;11.90;7.60;;;25.60;99.90;;;;;;5052419;28;20206;-79
2021/07/22 11:00:51;;;;;;;11.00;7.15;;;25.60;99.90;;;;;;5052074;28;20187;-79
2021/07/22 11:06:01;;;;;;;7.10;4.78;;;25.70;99.90;;;;;;5052564;28;20274;-78
2021/07/22 11:08:31;;;;;;;6.97;5.75;;;25.60;99.90;;;;;;5052469;28;20218;-79
2021/07/22 11:11:06;;;;;;;7.30;6.60;;;25.50;99.90;;;;;;5052228;28;20173;-78
2021/07/22 11:13:34;;;;;;;9.23;5.55;;;25.40;99.90;;;;;;5052445;28;20174;-79
2021/07/22 11:16:02;;;;;;;6.30;5.07;;;25.40;99.90;;;;;;5034044;28;20195;-79
2021/07/22 11:18:42;;;;;;;5.75;5.22;;;25.30;99.90;;;;;;5052564;28;20567;-78
2021/07/22 11:21:09;;;;;;;4.72;4.15;;;25.10;99.90;;;;;;5034615;28;20202;-78
2021/07/22 11:23:34;;;;;;;6.78;5.22;;;25.40;99.90;;;;;;5052405;28;20170;-79
2021/07/22 11:26:00;;;;;;;8.30;5.72;;;25.70;99.90;;;;;;5052387;28;20182;-78
2021/07/22 11:28:27;;;;;;;9.45;6.50;;;25.70;99.90;;;;;;5052242;28;20205;-78
2021/07/22 11:31:07;;;;;;;8.30;6.00;;;25.80;99.90;;;;;;5052837;28;20163;-79
2021/07/22 11:33:42;;;;;;;5.95;5.45;;;25.80;99.90;;;;;;5052382;28;20930;-78
2021/07/22 11:36:11;;;;;;;5.38;4.88;;;25.60;99.90;;;;;;5034278;28;20228;-79
2021/07/22 11:38:38;;;;;;;7.32;6.60;;;25.70;99.90;;;;;;5052986;28;20179;-81
2021/07/22 11:41:14;;;;;;;7.07;6.38;;;25.80;99.90;;;;;;5052419;28;20163;-79
2021/07/22 11:43:45;;;;;;;6.60;5.45;;;25.90;99.90;;;;;;5052612;28;20174;-78
2021/07/22 11:46:12;;;;;;;7.00;5.47;;;25.90;99.90;;;;;;5052302;28;20187;-78
2021/07/22 11:48:40;;;;;;;9.30;6.03;;;25.90;99.90;;;;;;5034340;28;20546;-79
2021/07/22 11:51:13;;;;;;;8.38;6.03;;;25.90;99.90;;;;;;5051921;28;20237;-79
2021/07/22 11:53:40;;;;;;;5.57;5.05;;;26.00;99.90;;;;;;5051821;28;20160;-79
2021/07/22 11:56:18;;;;;;;7.10;5.75;;;26.10;99.90;;;;;;5051592;28;20305;-78
2021/07/22 11:58:51;;;;;;;6.18;5.57;;;26.10;99.90;;;;;;5034042;28;20248;-78
2021/07/22 12:01:17;;;;;;;6.65;5.45;;;26.00;99.90;;;;;;5051853;28;20175;-79
2021/07/22 12:03:47;;;;;;;6.70;5.93;;;26.10;99.90;;;;;;5052269;28;20518;-79
2021/07/22 12:06:14;;;;;;;6.60;4.80;;;26.10;99.90;;;;;;5051565;28;20202;-79
2021/07/22 12:08:39;;;;;;;6.30;5.25;;;26.00;99.90;;;;;;5052284;28;20168;-79
2021/07/22 12:11:05;;;;;;;5.57;4.88;;;26.10;99.90;;;;;;5037835;28;20182;-79
2021/07/22 12:13:53;;;;;;;6.72;6.15;;;25.70;99.90;;;;;;5055859;28;20170;-79
2021/07/22 12:16:27;;;;;;;6.82;5.88;;;25.40;99.90;;;;;;5037156;28;20269;-79
2021/07/22 12:18:54;;;;;;;6.75;6.15;;;25.60;99.90;;;;;;5055653;28;20167;-79
2021/07/22 12:21:27;;;;;;;14.57;6.53;;;25.80;99.90;;;;;;5055349;28;20642;-79
2021/07/22 12:23:54;;;;;;;8.52;6.65;;;26.10;99.90;;;;;;5037182;28;20533;-79
2021/07/22 12:26:21;;;;;;;7.20;6.30;;;26.20;99.90;;;;;;5054675;28;20187;-79
2021/07/22 12:28:59;;;;;;;7.30;6.60;;;26.10;99.90;;;;;;5055157;28;20166;-80
2021/07/22 12:31:25;;;;;;;8.85;6.75;;;25.90;99.90;;;;;;5037272;28;20175;-80
2021/07/22 12:34:02;;;;;;;6.93;6.40;;;26.00;99.90;;;;;;5055138;28;20178;-80
2021/07/22 12:36:32;;;;;;;9.00;6.05;;;26.20;99.90;;;;;;5055000;28;20666;-80